Time;durP1;ratioP1;P1;durP2;ratioP2;P2;SDS_P1;SDS_P2;PMS_P1;PMS_P2;Temp;Humidity;BMP_temperature;BMP_pressure;BME280_temperature;BME280_humidity;BME280_pressure;Samples;Min_cycle;Max_cycle;Signal;HPM_P1;HPM_P2
2022/12/04 00:01:07;;;;;;;36.90;14.48;;;;;;;;;;5034496;28;20060;-90
2022/12/04 00:03:33;;;;;;;37.25;13.55;;;;;;;;;;5034461;28;20174;-91
2022/12/04 00:06:09;;;;;;;41.80;15.02;;;;;;;;;;5034343;28;20568;-90
2022/12/04 00:08:34;;;;;;;47.85;15.40;;;;;;;;;;5033458;28;20488;-90
2022/12/04 00:10:59;;;;;;;45.80;17.07;;;;;;;;;;5034302;28;20025;-90
2022/12/04 00:13:25;;;;;;;42.10;15.63;;;;;;;;;;5034334;28;20024;-90
2022/12/04 00:15:50;;;;;;;42.15;16.35;;;;;;;;;;5035404;28;20437;-90
2022/12/04 00:18:16;;;;;;;44.00;15.00;;;;;;;;;;5026946;28;20045;-90
2022/12/04 00:20:41;;;;;;;43.22;15.23;;;;;;;;;;5034016;28;20044;-90
2022/12/04 00:23:06;;;;;;;44.03;16.53;;;;;;;;;;5032182;28;20398;-90
2022/12/04 00:25:31;;;;;;;45.07;16.47;;;;;;;;;;5034057;28;20030;-90
2022/12/04 00:27:57;;;;;;;46.60;16.73;;;;;;;;;;5034925;28;20024;-90
2022/12/04 00:30:22;;;;;;;45.10;17.13;;;;;;;;;;5035102;28;20402;-90
2022/12/04 00:32:47;;;;;;;45.53;16.43;;;;;;;;;;5033921;28;20091;-90
2022/12/04 00:35:12;;;;;;;53.00;17.37;;;;;;;;;;5029559;28;20026;-90
2022/12/04 00:37:37;;;;;;;50.27;16.57;;;;;;;;;;5020700;28;20044;-90
2022/12/04 00:40:03;;;;;;;41.13;15.52;;;;;;;;;;5033821;28;20030;-90
2022/12/04 00:42:28;;;;;;;46.63;15.40;;;;;;;;;;5033013;28;20068;-90
2022/12/04 00:44:53;;;;;;;48.40;16.17;;;;;;;;;;5034836;28;20036;-90
2022/12/04 00:47:18;;;;;;;51.53;16.95;;;;;;;;;;5033231;28;20017;-90
2022/12/04 00:49:44;;;;;;;44.83;15.83;;;;;;;;;;5033465;28;20029;-90
2022/12/04 00:52:09;;;;;;;46.47;13.80;;;;;;;;;;5034262;28;20445;-90
2022/12/04 00:54:34;;;;;;;53.37;17.77;;;;;;;;;;5033226;28;20025;-90
2022/12/04 00:56:59;;;;;;;39.35;14.27;;;;;;;;;;5033255;28;20028;-90
2022/12/04 00:59:24;;;;;;;39.88;15.00;;;;;;;;;;5033189;28;20093;-90
2022/12/04 01:01:50;;;;;;;51.10;15.48;;;;;;;;;;5034097;28;20020;-90
2022/12/04 01:04:15;;;;;;;43.20;15.48;;;;;;;;;;5032912;28;20021;-90
2022/12/04 01:06:40;;;;;;;48.35;16.77;;;;;;;;;;5033149;28;20040;-89
2022/12/04 01:09:05;;;;;;;48.28;16.48;;;;;;;;;;5032829;28;20021;-89
2022/12/04 01:11:31;;;;;;;46.72;16.55;;;;;;;;;;5032401;28;20025;-89
2022/12/04 01:13:56;;;;;;;44.13;15.80;;;;;;;;;;5034553;28;20025;-90
2022/12/04 01:16:23;;;;;;;38.53;13.48;;;;;;;;;;5034162;28;20048;-90
2022/12/04 01:18:49;;;;;;;43.90;15.43;;;;;;;;;;5032606;28;20057;-90
2022/12/04 01:21:14;;;;;;;42.92;13.93;;;;;;;;;;5032859;28;20022;-90
2022/12/04 01:23:40;;;;;;;43.53;16.75;;;;;;;;;;5032763;28;20462;-90
2022/12/04 01:26:05;;;;;;;49.45;17.10;;;;;;;;;;5032966;28;20361;-90
2022/12/04 01:28:30;;;;;;;40.05;14.63;;;;;;;;;;5033867;28;20047;-89
2022/12/04 01:30:59;;;;;;;41.67;15.32;;;;;;;;;;5034367;28;20017;-90
2022/12/04 01:33:24;;;;;;;43.92;15.23;;;;;;;;;;5032657;28;20681;-89
2022/12/04 01:35:54;;;;;;;41.33;14.43;;;;;;;;;;5032111;28;20104;-90
2022/12/04 01:38:19;;;;;;;39.47;14.38;;;;;;;;;;5032533;28;20017;-90
2022/12/04 01:40:44;;;;;;;43.72;17.48;;;;;;;;;;5032605;28;20491;-89
2022/12/04 01:43:11;;;;;;;41.88;16.48;;;;;;;;;;5032223;28;20025;-90
2022/12/04 01:45:38;;;;;;;51.13;16.73;;;;;;;;;;5032308;28;20418;-90
2022/12/04 01:48:17;;;;;;;43.40;14.63;;;;;;;;;;5032025;28;20022;-90
2022/12/04 01:50:42;;;;;;;40.50;12.20;;;;;;;;;;5031643;28;20022;-90
2022/12/04 01:53:08;;;;;;;45.17;15.93;;;;;;;;;;5032066;28;20014;-90
2022/12/04 01:55:33;;;;;;;37.05;14.10;;;;;;;;;;5032471;28;20029;-90
2022/12/04 01:57:59;;;;;;;45.03;15.23;;;;;;;;;;5032682;28;20482;-90
2022/12/04 02:00:24;;;;;;;50.42;18.10;;;;;;;;;;5024449;28;20174;-89
2022/12/04 02:02:49;;;;;;;47.60;17.25;;;;;;;;;;5045429;28;20018;-89
2022/12/04 02:05:16;;;;;;;43.03;15.52;;;;;;;;;;5032165;28;20013;-90
2022/12/04 02:07:43;;;;;;;38.33;14.75;;;;;;;;;;5031760;28;20029;-89
2022/12/04 02:10:08;;;;;;;41.47;14.75;;;;;;;;;;5026687;28;20487;-90
2022/12/04 02:12:34;;;;;;;41.53;13.98;;;;;;;;;;5024517;28;20087;-90
2022/12/04 02:15:21;;;;;;;36.20;14.43;;;;;;;;;;5033198;28;20436;-90
2022/12/04 02:17:52;;;;;;;40.25;14.30;;;;;;;;;;5031803;28;20477;-90
2022/12/04 02:20:21;;;;;;;38.53;14.10;;;;;;;;;;5018779;28;20017;-90
2022/12/04 02:23:05;;;;;;;41.30;14.52;;;;;;;;;;5031733;28;20047;-89
2022/12/04 02:25:37;;;;;;;45.60;15.98;;;;;;;;;;5031773;28;20380;-89
2022/12/04 02:28:05;;;;;;;40.53;15.85;;;;;;;;;;5031416;28;20384;-90
2022/12/04 02:30:31;;;;;;;49.85;16.77;;;;;;;;;;5047642;28;20036;-89
2022/12/04 02:33:00;;;;;;;40.72;13.50;;;;;;;;;;5031241;28;20053;-90
2022/12/04 02:35:26;;;;;;;40.75;14.23;;;;;;;;;;5048418;28;20025;-90
2022/12/04 02:37:55;;;;;;;42.47;15.57;;;;;;;;;;5027994;28;20034;-90
2022/12/04 02:40:25;;;;;;;49.78;16.35;;;;;;;;;;5034334;28;20022;-89
2022/12/04 02:42:57;;;;;;;42.03;15.55;;;;;;;;;;5031000;28;20433;-90
2022/12/04 02:45:28;;;;;;;38.63;12.13;;;;;;;;;;5031717;28;20045;-90
2022/12/04 02:47:54;;;;;;;45.97;17.80;;;;;;;;;;5031256;28;20056;-90
2022/12/04 02:50:21;;;;;;;45.67;15.63;;;;;;;;;;5030809;28;20060;-89
2022/12/04 02:52:49;;;;;;;45.55;16.17;;;;;;;;;;5031397;28;20068;-90
2022/12/04 02:55:34;;;;;;;43.85;14.55;;;;;;;;;;5031217;28;20029;-90
2022/12/04 02:58:04;;;;;;;46.22;15.93;;;;;;;;;;5030131;28;20394;-90
2022/12/04 03:00:31;;;;;;;39.58;14.90;;;;;;;;;;5034878;28;20034;-90
2022/12/04 03:03:02;;;;;;;34.85;12.18;;;;;;;;;;5035484;28;20021;-90
2022/12/04 03:05:54;;;;;;;43.30;14.23;;;;;;;;;;5034952;28;20048;-88
2022/12/04 03:08:21;;;;;;;35.13;13.02;;;;;;;;;;5035153;28;20040;-90
2022/12/04 03:10:52;;;;;;;33.33;13.30;;;;;;;;;;5034439;28;20028;-90
2022/12/04 03:13:20;;;;;;;34.13;11.60;;;;;;;;;;5034518;28;20439;-90
2022/12/04 03:15:46;;;;;;;39.88;13.23;;;;;;;;;;5051275;28;20033;-89
2022/12/04 03:18:41;;;;;;;48.05;17.33;;;;;;;;;;5036374;28;20488;-90
2022/12/04 03:21:09;;;;;;;45.30;15.23;;;;;;;;;;5025726;28;20071;-90
2022/12/04 03:23:38;;;;;;;39.58;13.68;;;;;;;;;;5035262;28;20029;-90
2022/12/04 03:26:09;;;;;;;35.25;14.40;;;;;;;;;;5035106;28;20026;-90
2022/12/04 03:28:54;;;;;;;44.05;15.95;;;;;;;;;;5034913;28;20036;-90
2022/12/04 03:31:23;;;;;;;45.65;16.77;;;;;;;;;;5035970;28;20470;-90
2022/12/04 03:33:49;;;;;;;48.08;18.42;;;;;;;;;;5036085;28;20112;-90
2022/12/04 03:36:20;;;;;;;39.10;14.88;;;;;;;;;;5034890;28;20060;-89
2022/12/04 03:38:51;;;;;;;41.42;13.68;;;;;;;;;;5035941;28;20090;-90
2022/12/04 03:41:19;;;;;;;46.05;16.83;;;;;;;;;;5035369;28;20025;-90
2022/12/04 03:43:49;;;;;;;43.72;15.70;;;;;;;;;;5035644;28;20033;-89
2022/12/04 03:46:35;;;;;;;46.55;16.80;;;;;;;;;;5036273;28;20017;-89
2022/12/04 03:49:18;;;;;;;44.55;17.33;;;;;;;;;;5021990;28;20349;-89
2022/12/04 03:51:47;;;;;;;49.72;16.50;;;;;;;;;;5033962;28;20060;-90
2022/12/04 03:54:20;;;;;;;46.63;17.17;;;;;;;;;;5035745;28;20421;-89
2022/12/04 03:56:54;;;;;;;46.70;16.30;;;;;;;;;;5033649;28;20045;-89
2022/12/04 03:59:21;;;;;;;41.60;14.18;;;;;;;;;;5033959;28;20079;-89
2022/12/04 04:01:48;;;;;;;47.97;17.42;;;;;;;;;;5025998;28;20014;-89
2022/12/04 04:04:17;;;;;;;43.55;16.13;;;;;;;;;;5034276;28;20021;-89
2022/12/04 04:06:57;;;;;;;51.75;17.85;;;;;;;;;;5034210;28;20052;-89
2022/12/04 04:09:24;;;;;;;42.35;14.80;;;;;;;;;;5022278;28;20040;-89
2022/12/04 04:12:21;;;;;;;46.17;16.33;;;;;;;;;;5033546;28;20087;-89
2022/12/04 04:25:52;;;;;;;45.50;14.90;;;;;;;;;;5035645;28;20033;-89
2022/12/04 04:28:26;;;;;;;45.10;17.60;;;;;;;;;;5033647;28;20021;-89
2022/12/04 04:30:52;;;;;;;45.30;17.40;;;;;;;;;;5033758;28;20112;-89
2022/12/04 04:33:17;;;;;;;44.55;15.43;;;;;;;;;;5032901;28;20476;-89
2022/12/04 04:35:56;;;;;;;45.15;16.98;;;;;;;;;;5035202;28;20020;-90
2022/12/04 04:38:27;;;;;;;43.55;16.05;;;;;;;;;;5034860;28;20009;-89
2022/12/04 04:40:58;;;;;;;48.55;17.25;;;;;;;;;;5033820;28;20021;-89
2022/12/04 04:43:34;;;;;;;44.90;16.88;;;;;;;;;;5030564;28;20017;-89
2022/12/04 04:46:04;;;;;;;47.83;19.00;;;;;;;;;;5033393;28;20018;-89
2022/12/04 04:48:39;;;;;;;42.20;15.80;;;;;;;;;;5034691;28;20022;-89
2022/12/04 04:51:05;;;;;;;50.45;18.35;;;;;;;;;;5033338;28;20022;-88
2022/12/04 04:53:33;;;;;;;48.92;18.45;;;;;;;;;;5032856;28;20117;-89
2022/12/04 04:55:59;;;;;;;50.30;17.17;;;;;;;;;;5033342;28;20385;-89
2022/12/04 04:58:24;;;;;;;45.13;16.73;;;;;;;;;;5034412;28;20021;-89
2022/12/04 05:00:53;;;;;;;48.45;17.38;;;;;;;;;;5032971;28;20029;-89
2022/12/04 05:03:18;;;;;;;41.08;15.45;;;;;;;;;;5032682;28;20018;-89
2022/12/04 05:05:43;;;;;;;46.33;17.10;;;;;;;;;;5033204;28;20117;-89
2022/12/04 05:08:09;;;;;;;40.13;13.93;;;;;;;;;;5032858;28;20013;-89
2022/12/04 05:10:34;;;;;;;49.78;17.48;;;;;;;;;;5032846;28;20021;-89
2022/12/04 05:12:59;;;;;;;44.00;17.08;;;;;;;;;;5033562;28;20037;-89
2022/12/04 05:15:24;;;;;;;43.28;16.40;;;;;;;;;;5027879;28;20018;-89
2022/12/04 05:17:49;;;;;;;53.20;18.60;;;;;;;;;;5032922;28;20030;-89
2022/12/04 05:20:15;;;;;;;50.00;17.92;;;;;;;;;;5033181;28;20457;-89
2022/12/04 05:22:40;;;;;;;40.60;15.27;;;;;;;;;;5031461;28;20024;-89
2022/12/04 05:25:05;;;;;;;48.55;17.67;;;;;;;;;;5034117;28;20457;-89
2022/12/04 05:27:31;;;;;;;41.67;15.73;;;;;;;;;;5032321;28;20021;-89
2022/12/04 05:29:57;;;;;;;52.03;18.95;;;;;;;;;;5032771;28;20100;-89
2022/12/04 05:32:23;;;;;;;42.58;16.23;;;;;;;;;;5032247;28;20022;-89
2022/12/04 05:34:52;;;;;;;46.70;17.40;;;;;;;;;;5029233;28;20022;-89
2022/12/04 05:37:18;;;;;;;48.78;18.30;;;;;;;;;;5038227;28;20021;-89
2022/12/04 05:39:43;;;;;;;48.30;16.15;;;;;;;;;;5030777;28;20083;-89
2022/12/04 05:42:08;;;;;;;43.67;16.38;;;;;;;;;;5031836;28;20021;-89
2022/12/04 05:44:33;;;;;;;57.00;18.60;;;;;;;;;;5032290;28;20080;-89
2022/12/04 05:46:58;;;;;;;41.13;16.80;;;;;;;;;;5032556;28;20349;-89
2022/12/04 05:49:24;;;;;;;45.38;15.25;;;;;;;;;;5032190;28;20034;-90
2022/12/04 05:51:49;;;;;;;47.88;16.38;;;;;;;;;;5032905;28;20018;-90
2022/12/04 05:54:15;;;;;;;52.20;18.08;;;;;;;;;;5032377;28;20025;-89
2022/12/04 05:56:40;;;;;;;40.95;14.57;;;;;;;;;;5032068;28;20307;-89
2022/12/04 05:59:05;;;;;;;46.45;17.95;;;;;;;;;;5032052;28;20029;-89
2022/12/04 06:01:31;;;;;;;53.85;17.90;;;;;;;;;;5032314;28;20093;-89
2022/12/04 06:03:56;;;;;;;46.85;17.73;;;;;;;;;;5031728;28;20017;-89
2022/12/04 06:06:23;;;;;;;47.05;17.30;;;;;;;;;;5033586;28;20337;-89
2022/12/04 06:08:49;;;;;;;45.50;17.75;;;;;;;;;;5031953;28;20022;-89
2022/12/04 06:11:18;;;;;;;50.05;19.15;;;;;;;;;;5033210;28;20703;-89
2022/12/04 06:13:44;;;;;;;55.25;18.17;;;;;;;;;;5031163;28;20100;-89
2022/12/04 06:16:23;;;;;;;41.13;14.25;;;;;;;;;;5033301;28;20066;-89
2022/12/04 06:18:56;;;;;;;49.05;17.00;;;;;;;;;;5031867;28;20058;-88
2022/12/04 06:21:22;;;;;;;45.72;16.02;;;;;;;;;;5033063;28;20318;-89
2022/12/04 06:23:48;;;;;;;38.60;13.13;;;;;;;;;;5030740;28;20018;-90
2022/12/04 06:26:13;;;;;;;50.42;17.95;;;;;;;;;;5031627;28;20538;-90
2022/12/04 06:28:39;;;;;;;49.63;17.30;;;;;;;;;;5031774;28;20018;-89
2022/12/04 06:31:09;;;;;;;52.85;17.80;;;;;;;;;;5031634;28;20009;-90
2022/12/04 06:33:34;;;;;;;53.40;19.58;;;;;;;;;;5030371;28;20164;-90
2022/12/04 06:36:00;;;;;;;50.28;19.63;;;;;;;;;;5029095;28;20100;-89
2022/12/04 06:38:26;;;;;;;40.58;13.05;;;;;;;;;;5031449;28;20459;-89
2022/12/04 06:40:51;;;;;;;43.35;16.15;;;;;;;;;;5032491;28;20133;-89
2022/12/04 06:43:16;;;;;;;43.90;17.42;;;;;;;;;;5031093;28;20121;-89
2022/12/04 06:45:41;;;;;;;52.83;18.15;;;;;;;;;;5032519;28;20108;-90
2022/12/04 06:48:06;;;;;;;53.28;19.20;;;;;;;;;;5023644;28;20454;-89
2022/12/04 06:50:32;;;;;;;50.70;17.98;;;;;;;;;;5037686;28;20398;-89
2022/12/04 06:52:57;;;;;;;53.00;19.15;;;;;;;;;;5031356;28;20032;-89
2022/12/04 06:55:22;;;;;;;54.53;20.17;;;;;;;;;;5030821;28;20036;-89
2022/12/04 06:57:47;;;;;;;48.83;18.33;;;;;;;;;;5023070;28;20421;-89
2022/12/04 07:00:13;;;;;;;52.70;18.88;;;;;;;;;;5041249;28;20048;-89
2022/12/04 07:02:38;;;;;;;44.08;17.67;;;;;;;;;;5034248;28;20023;-90
2022/12/04 07:05:03;;;;;;;39.65;14.35;;;;;;;;;;5031181;28;20108;-90
2022/12/04 07:07:28;;;;;;;55.95;20.42;;;;;;;;;;5032255;28;20025;-88
2022/12/04 07:09:54;;;;;;;53.95;19.92;;;;;;;;;;5036813;28;20040;-90
2022/12/04 07:12:19;;;;;;;53.20;19.08;;;;;;;;;;5029461;28;20167;-90
2022/12/04 07:14:44;;;;;;;52.83;19.52;;;;;;;;;;5031636;28;20021;-90
2022/12/04 07:17:09;;;;;;;63.60;24.92;;;;;;;;;;5031712;28;20435;-89
2022/12/04 07:19:35;;;;;;;48.40;19.20;;;;;;;;;;5027255;28;20017;-90
2022/12/04 07:22:00;;;;;;;45.75;16.67;;;;;;;;;;5031265;28;20020;-90
2022/12/04 07:24:26;;;;;;;56.67;18.75;;;;;;;;;;5031096;28;20018;-90
2022/12/04 07:26:51;;;;;;;45.35;15.43;;;;;;;;;;5030289;28;20387;-90
2022/12/04 07:29:16;;;;;;;45.28;15.73;;;;;;;;;;5031146;28;20108;-90
2022/12/04 07:31:43;;;;;;;49.00;19.10;;;;;;;;;;5031262;28;20028;-90
2022/12/04 07:34:08;;;;;;;54.45;19.15;;;;;;;;;;5032328;28;20017;-90
2022/12/04 07:36:33;;;;;;;49.35;18.42;;;;;;;;;;5030116;28;20029;-91
2022/12/04 07:38:59;;;;;;;47.40;18.58;;;;;;;;;;5031233;28;20079;-90
2022/12/04 07:41:24;;;;;;;52.17;18.80;;;;;;;;;;5030789;28;20120;-90
2022/12/04 07:43:49;;;;;;;42.67;16.08;;;;;;;;;;5031148;28;20014;-91
2022/12/04 07:46:15;;;;;;;46.83;19.02;;;;;;;;;;5034452;28;20071;-91
2022/12/04 07:48:41;;;;;;;61.75;21.45;;;;;;;;;;5034811;28;20036;-91
2022/12/04 07:51:07;;;;;;;52.75;19.60;;;;;;;;;;5034519;28;20021;-90
2022/12/04 07:53:33;;;;;;;54.03;19.58;;;;;;;;;;5034926;28;20014;-91
2022/12/04 07:55:59;;;;;;;46.15;18.08;;;;;;;;;;5034768;28;20049;-90
2022/12/04 07:58:24;;;;;;;55.00;18.80;;;;;;;;;;5035896;28;20067;-90
2022/12/04 08:00:49;;;;;;;53.47;20.17;;;;;;;;;;5036086;28;20025;-90
2022/12/04 08:03:14;;;;;;;54.00;17.65;;;;;;;;;;5035053;28;20047;-91
2022/12/04 08:05:40;;;;;;;49.28;16.83;;;;;;;;;;5020815;28;20483;-91
2022/12/04 08:08:05;;;;;;;56.63;20.98;;;;;;;;;;5034266;28;20025;-91
2022/12/04 08:10:30;;;;;;;52.38;17.88;;;;;;;;;;5034470;28;20022;-90
2022/12/04 08:12:55;;;;;;;55.47;18.98;;;;;;;;;;5034626;28;20052;-90
2022/12/04 08:15:20;;;;;;;57.85;19.35;;;;;;;;;;5034540;28;20542;-90
2022/12/04 08:17:46;;;;;;;49.05;17.92;;;;;;;;;;5033957;28;20037;-90
2022/12/04 08:20:11;;;;;;;53.28;20.95;;;;;;;;;;5034148;28;20033;-90
2022/12/04 08:22:36;;;;;;;52.45;18.77;;;;;;;;;;5034311;28;20600;-91
2022/12/04 08:25:01;;;;;;;44.83;17.20;;;;;;;;;;5034440;28;20093;-90
2022/12/04 08:27:26;;;;;;;49.80;16.75;;;;;;;;;;5033019;28;20014;-91
2022/12/04 08:29:52;;;;;;;46.28;17.95;;;;;;;;;;5034951;28;20468;-90
2022/12/04 08:32:17;;;;;;;49.35;17.52;;;;;;;;;;5033850;28;20097;-92
2022/12/04 08:34:42;;;;;;;47.30;17.60;;;;;;;;;;5034094;28;20032;-91
2022/12/04 08:37:08;;;;;;;48.03;16.45;;;;;;;;;;5033607;28;20029;-90
2022/12/04 08:39:33;;;;;;;46.55;16.88;;;;;;;;;;5033062;28;20541;-90
2022/12/04 08:41:58;;;;;;;59.08;18.63;;;;;;;;;;5033397;28;20101;-90
2022/12/04 08:44:23;;;;;;;40.55;16.02;;;;;;;;;;5033400;28;20071;-89
2022/12/04 08:46:49;;;;;;;47.58;15.00;;;;;;;;;;5033481;28;20091;-91
2022/12/04 08:49:14;;;;;;;40.20;15.55;;;;;;;;;;5033620;28;20032;-89
2022/12/04 08:51:39;;;;;;;37.83;15.43;;;;;;;;;;5033559;28;20488;-90
2022/12/04 08:54:06;;;;;;;40.20;15.75;;;;;;;;;;5034344;28;20017;-88
2022/12/04 08:56:32;;;;;;;39.75;16.00;;;;;;;;;;5023047;28;20037;-90
2022/12/04 08:58:58;;;;;;;33.42;13.93;;;;;;;;;;5033633;28;20017;-91
2022/12/04 09:01:24;;;;;;;39.40;15.23;;;;;;;;;;5043583;28;20024;-93
2022/12/04 09:03:49;;;;;;;42.00;15.35;;;;;;;;;;5029278;28;20018;-92
2022/12/04 09:06:15;;;;;;;40.75;15.40;;;;;;;;;;5032456;28;20504;-93
2022/12/04 09:08:41;;;;;;;41.50;15.30;;;;;;;;;;5029789;28;20017;-93
2022/12/04 09:11:08;;;;;;;41.25;15.80;;;;;;;;;;5034386;28;20017;-93
2022/12/04 09:13:33;;;;;;;50.45;17.60;;;;;;;;;;5021143;28;20009;-93
2022/12/04 09:15:58;;;;;;;41.85;16.50;;;;;;;;;;5052972;28;20156;-94
2022/12/04 09:18:24;;;;;;;47.38;17.60;;;;;;;;;;5038328;28;20089;-93
2022/12/04 09:20:56;;;;;;;42.35;14.55;;;;;;;;;;5023545;28;20017;-92
2022/12/04 09:23:21;;;;;;;41.60;12.88;;;;;;;;;;5026966;28;20397;-93
2022/12/04 09:25:47;;;;;;;38.70;13.80;;;;;;;;;;5031036;28;20036;-92
2022/12/04 09:28:12;;;;;;;40.92;15.60;;;;;;;;;;5033239;28;20018;-92
2022/12/04 09:30:37;;;;;;;44.17;15.75;;;;;;;;;;5033126;28;20108;-92
2022/12/04 09:33:02;;;;;;;33.55;12.38;;;;;;;;;;5033551;28;20492;-92
2022/12/04 09:35:28;;;;;;;42.47;15.88;;;;;;;;;;5032238;28;20029;-92
2022/12/04 09:37:54;;;;;;;39.55;15.30;;;;;;;;;;5033120;28;20029;-91
2022/12/04 09:40:23;;;;;;;44.25;15.93;;;;;;;;;;5034346;28;20480;-91
2022/12/04 09:42:53;;;;;;;48.25;16.70;;;;;;;;;;5033066;28;20021;-91
2022/12/04 09:45:23;;;;;;;39.83;13.18;;;;;;;;;;5033532;28;20042;-92
2022/12/04 09:47:58;;;;;;;38.35;13.23;;;;;;;;;;5034166;28;20018;-92
2022/12/04 09:50:39;;;;;;;36.05;13.57;;;;;;;;;;5032912;28;20144;-91
2022/12/04 09:53:12;;;;;;;36.30;14.32;;;;;;;;;;5033226;28;20036;-92
2022/12/04 09:55:48;;;;;;;33.80;13.20;;;;;;;;;;5032607;28;20021;-92
2022/12/04 09:58:16;;;;;;;35.10;14.60;;;;;;;;;;5032766;28;20067;-92
2022/12/04 10:00:43;;;;;;;39.22;14.55;;;;;;;;;;5032831;28;20100;-91
2022/12/04 10:03:14;;;;;;;37.45;14.82;;;;;;;;;;5032721;28;20032;-88
2022/12/04 10:05:53;;;;;;;38.13;14.40;;;;;;;;;;5024295;28;20021;-92
2022/12/04 10:08:19;;;;;;;37.40;14.18;;;;;;;;;;5033467;28;20013;-91
2022/12/04 10:10:58;;;;;;;37.30;12.90;;;;;;;;;;5032789;28;20017;-92
2022/12/04 10:13:36;;;;;;;32.95;12.52;;;;;;;;;;5033047;28;20029;-92
2022/12/04 10:16:20;;;;;;;34.35;14.05;;;;;;;;;;5040118;28;20029;-92
2022/12/04 10:19:05;;;;;;;30.77;12.38;;;;;;;;;;5037319;28;20045;-91
2022/12/04 10:21:35;;;;;;;36.33;13.82;;;;;;;;;;5039355;28;20029;-92
2022/12/04 10:24:18;;;;;;;28.95;12.38;;;;;;;;;;5036544;28;20026;-92
2022/12/04 10:26:45;;;;;;;30.33;11.85;;;;;;;;;;5054958;28;20121;-92
2022/12/04 10:29:21;;;;;;;33.35;13.13;;;;;;;;;;5036658;28;20313;-93
2022/12/04 10:31:48;;;;;;;30.38;12.70;;;;;;;;;;5036927;28;20029;-92
2022/12/04 10:34:39;;;;;;;33.10;13.05;;;;;;;;;;5037680;28;20025;-92
2022/12/04 10:37:08;;;;;;;31.27;12.90;;;;;;;;;;5034101;28;20064;-92
2022/12/04 10:39:54;;;;;;;28.90;12.05;;;;;;;;;;5049997;28;20021;-92
2022/12/04 10:42:19;;;;;;;28.27;12.13;;;;;;;;;;5037351;28;20037;-92
2022/12/04 10:44:44;;;;;;;25.38;11.02;;;;;;;;;;5052890;28;20028;-92
2022/12/04 10:47:11;;;;;;;24.00;9.05;;;;;;;;;;5030743;28;20022;-92
2022/12/04 10:49:36;;;;;;;24.05;10.43;;;;;;;;;;5033939;28;20112;-92
2022/12/04 10:52:02;;;;;;;25.60;10.45;;;;;;;;;;5034766;28;20476;-91
2022/12/04 10:54:36;;;;;;;26.02;9.68;;;;;;;;;;5035935;28;20396;-92
2022/12/04 10:57:05;;;;;;;22.48;9.55;;;;;;;;;;5035813;28;20100;-92
2022/12/04 10:59:30;;;;;;;19.90;8.98;;;;;;;;;;5039551;28;20033;-92
2022/12/04 11:02:14;;;;;;;18.25;8.20;;;;;;;;;;5039093;28;20013;-92
2022/12/04 11:04:40;;;;;;;21.77;9.30;;;;;;;;;;5036949;28;20022;-92
2022/12/04 11:07:07;;;;;;;18.17;9.07;;;;;;;;;;5039060;28;20056;-91
2022/12/04 11:09:32;;;;;;;20.65;7.93;;;;;;;;;;5036144;28;20021;-92
2022/12/04 11:12:17;;;;;;;23.70;10.50;;;;;;;;;;5040499;28;20039;-92
2022/12/04 11:14:42;;;;;;;24.15;11.00;;;;;;;;;;5050188;28;20029;-92
2022/12/04 11:17:14;;;;;;;20.85;10.13;;;;;;;;;;5037482;28;20034;-92
2022/12/04 11:19:39;;;;;;;22.25;10.50;;;;;;;;;;5033493;28;20017;-90
2022/12/04 11:22:15;;;;;;;23.08;9.50;;;;;;;;;;5035113;28;20022;-90
2022/12/04 11:24:41;;;;;;;22.75;11.15;;;;;;;;;;5031956;28;20032;-90
2022/12/04 11:27:14;;;;;;;24.00;11.02;;;;;;;;;;5030091;28;20024;-90
2022/12/04 11:29:41;;;;;;;23.10;11.45;;;;;;;;;;5026142;28;20470;-90
2022/12/04 11:32:13;;;;;;;23.45;9.98;;;;;;;;;;5032367;28;20029;-90
2022/12/04 11:34:39;;;;;;;28.50;11.88;;;;;;;;;;5036014;28;20022;-90
2022/12/04 11:37:05;;;;;;;30.70;13.15;;;;;;;;;;5034753;28;20135;-90
2022/12/04 11:39:35;;;;;;;28.92;13.68;;;;;;;;;;5034921;28;20670;-89
2022/12/04 11:42:12;;;;;;;30.73;13.10;;;;;;;;;;5034233;28;20028;-89
2022/12/04 11:44:38;;;;;;;23.50;11.02;;;;;;;;;;5034268;28;20327;-90
2022/12/04 11:47:04;;;;;;;22.42;10.07;;;;;;;;;;5035366;28;20021;-90
2022/12/04 11:49:31;;;;;;;28.42;13.77;;;;;;;;;;5034611;28;20044;-89
2022/12/04 11:51:59;;;;;;;32.47;13.90;;;;;;;;;;5020384;28;20049;-89
2022/12/04 11:54:30;;;;;;;28.98;13.60;;;;;;;;;;5034429;28;20021;-89
2022/12/04 11:57:07;;;;;;;30.60;13.43;;;;;;;;;;5033160;28;20025;-89
2022/12/04 11:59:45;;;;;;;32.67;13.70;;;;;;;;;;5047231;28;20087;-88
2022/12/04 12:02:10;;;;;;;30.65;13.57;;;;;;;;;;5050548;28;20117;-89
2022/12/04 12:04:54;;;;;;;34.85;15.35;;;;;;;;;;5033653;28;20440;-89
2022/12/04 12:07:34;;;;;;;38.28;16.67;;;;;;;;;;5032961;28;20052;-89
2022/12/04 12:10:00;;;;;;;41.67;17.02;;;;;;;;;;5026294;28;20488;-88
2022/12/04 12:12:44;;;;;;;32.83;15.63;;;;;;;;;;5032380;28;20029;-88
2022/12/04 12:15:09;;;;;;;32.80;12.57;;;;;;;;;;5034143;28;20037;-89
2022/12/04 12:17:49;;;;;;;29.45;11.88;;;;;;;;;;5049807;28;20025;-88
2022/12/04 12:20:33;;;;;;;32.38;14.30;;;;;;;;;;5048774;28;20029;-88
2022/12/04 12:23:12;;;;;;;27.52;13.13;;;;;;;;;;5048218;28;20018;-88
2022/12/04 12:25:37;;;;;;;32.17;14.45;;;;;;;;;;5033361;28;20033;-89
2022/12/04 12:28:12;;;;;;;28.48;13.13;;;;;;;;;;5049430;28;20108;-88
2022/12/04 12:30:56;;;;;;;24.50;11.15;;;;;;;;;;5033690;28;20488;-88
2022/12/04 12:33:29;;;;;;;28.90;12.52;;;;;;;;;;5042573;28;20068;-88
2022/12/04 12:36:02;;;;;;;29.52;13.68;;;;;;;;;;5045008;28;20087;-89
2022/12/04 12:38:32;;;;;;;28.85;15.55;;;;;;;;;;5034387;28;20057;-89
2022/12/04 12:41:03;;;;;;;28.27;13.93;;;;;;;;;;5033267;28;20025;-87
2022/12/04 12:43:32;;;;;;;28.38;13.52;;;;;;;;;;5041405;28;20025;-89
2022/12/04 12:46:13;;;;;;;29.20;13.48;;;;;;;;;;5033250;28;20470;-88
2022/12/04 12:48:38;;;;;;;35.00;13.93;;;;;;;;;;5031185;28;20013;-89
2022/12/04 12:51:24;;;;;;;30.60;13.07;;;;;;;;;;5031452;28;20094;-89
2022/12/04 12:53:51;;;;;;;29.08;12.32;;;;;;;;;;5031943;28;20092;-89
2022/12/04 12:56:17;;;;;;;27.25;13.02;;;;;;;;;;5033448;28;20041;-90
2022/12/04 12:58:45;;;;;;;30.05;13.75;;;;;;;;;;5033209;28;20036;-90
2022/12/04 13:01:18;;;;;;;33.00;15.25;;;;;;;;;;5025213;28;20452;-90
2022/12/04 13:03:56;;;;;;;29.30;13.93;;;;;;;;;;5032647;28;20021;-88
2022/12/04 13:06:26;;;;;;;32.70;15.02;;;;;;;;;;5042567;28;20025;-90
2022/12/04 13:09:06;;;;;;;27.33;14.60;;;;;;;;;;5032783;28;20021;-89
2022/12/04 13:11:32;;;;;;;25.45;13.25;;;;;;;;;;5045182;28;20488;-89
2022/12/04 13:13:59;;;;;;;34.72;16.35;;;;;;;;;;5029577;28;20026;-89
2022/12/04 13:16:43;;;;;;;28.50;14.88;;;;;;;;;;5032166;28;20035;-88
2022/12/04 13:19:11;;;;;;;27.58;14.77;;;;;;;;;;5041605;28;20029;-88
2022/12/04 13:21:40;;;;;;;27.17;13.48;;;;;;;;;;5040734;28;20451;-88
2022/12/04 13:24:08;;;;;;;27.83;12.90;;;;;;;;;;5028333;28;20021;-88
2022/12/04 13:26:33;;;;;;;27.02;12.65;;;;;;;;;;5031751;28;20036;-89
2022/12/04 13:29:23;;;;;;;23.42;11.45;;;;;;;;;;5031788;28;20120;-88
2022/12/04 13:31:54;;;;;;;23.83;10.48;;;;;;;;;;5032150;28;20493;-88
2022/12/04 13:34:38;;;;;;;23.23;10.93;;;;;;;;;;5028579;28;20017;-86
2022/12/04 13:37:22;;;;;;;26.08;12.18;;;;;;;;;;5030977;28;20030;-86
2022/12/04 13:40:08;;;;;;;27.23;12.48;;;;;;;;;;5027527;28;20021;-86
2022/12/04 13:42:33;;;;;;;25.80;11.88;;;;;;;;;;5046613;28;20056;-86
2022/12/04 13:45:01;;;;;;;29.38;13.55;;;;;;;;;;5031301;28;20476;-86
2022/12/04 13:47:31;;;;;;;29.13;13.35;;;;;;;;;;5032579;28;20326;-87
2022/12/04 13:50:14;;;;;;;30.35;14.20;;;;;;;;;;5019343;28;20030;-86
2022/12/04 13:52:40;;;;;;;29.83;13.60;;;;;;;;;;5031299;28;20026;-86
2022/12/04 13:55:41;;;;;;;23.83;13.43;;;;;;;;;;5047914;28;20440;-87
2022/12/04 13:58:09;;;;;;;26.17;13.48;;;;;;;;;;5030941;28;20477;-88
2022/12/04 14:00:35;;;;;;;27.55;13.35;;;;;;;;;;5044161;28;20038;-88
2022/12/04 14:03:04;;;;;;;27.10;13.27;;;;;;;;;;5029570;28;20026;-88
2022/12/04 14:05:40;;;;;;;24.77;10.60;;;;;;;;;;5034060;28;20025;-89
2022/12/04 14:08:06;;;;;;;27.80;13.40;;;;;;;;;;5047693;28;20036;-88
2022/12/04 14:10:34;;;;;;;23.10;12.10;;;;;;;;;;5031350;28;20075;-88
2022/12/04 14:13:02;;;;;;;26.55;12.50;;;;;;;;;;5031441;28;20384;-89
2022/12/04 14:15:35;;;;;;;30.10;13.38;;;;;;;;;;5031530;28;20461;-89
2022/12/04 14:18:03;;;;;;;26.63;13.50;;;;;;;;;;5030826;28;20040;-87
2022/12/04 14:20:31;;;;;;;24.35;12.50;;;;;;;;;;5030491;28;20065;-86
2022/12/04 14:23:25;;;;;;;30.52;14.45;;;;;;;;;;5030196;28;20429;-87
2022/12/04 14:25:55;;;;;;;29.30;12.95;;;;;;;;;;5030562;28;20028;-88
2022/12/04 14:28:21;;;;;;;25.15;11.07;;;;;;;;;;5030926;28;20032;-88
2022/12/04 14:30:56;;;;;;;25.63;12.98;;;;;;;;;;5046096;28;20033;-88
2022/12/04 14:33:23;;;;;;;30.00;12.95;;;;;;;;;;5039453;28;20029;-88
2022/12/04 14:35:57;;;;;;;25.45;11.88;;;;;;;;;;5028127;28;20116;-89
2022/12/04 14:38:22;;;;;;;25.20;11.73;;;;;;;;;;5030954;28;20055;-88
2022/12/04 14:40:52;;;;;;;23.77;12.07;;;;;;;;;;5031839;28;20052;-88